Time;durP1;ratioP1;P1;durP2;ratioP2;P2;SDS_P1;SDS_P2;PMS_P1;PMS_P2;Temp;Humidity;BMP_temperature;BMP_pressure;BME280_temperature;BME280_humidity;BME280_pressure;Samples;Min_cycle;Max_cycle;Signal;HPM_P1;HPM_P2
2023/04/06 00:01:07;;;;;;;;;;;;;;;;;;5048712;28;43276;-81
2023/04/06 00:03:33;;;;;;;;;;;;;;;;;;5046593;28;43048;-82
2023/04/06 00:05:58;;;;;;;;;;;;;;;;;;5049108;28;43055;-82
2023/04/06 00:08:24;;;;;;;;;;;;;;;;;;5057647;28;42940;-81
2023/04/06 00:10:50;;;;;;;;;;;;;;;;;;5048096;28;43140;-80
2023/04/06 00:13:16;;;;;;;;;;;;;;;;;;5045723;28;43364;-81
2023/04/06 00:15:42;;;;;;;;;;;;;;;;;;5045614;28;42789;-80
2023/04/06 00:18:08;;;;;;;;;;;;;;;;;;5045095;28;43375;-80
2023/04/06 00:20:34;;;;;;;;;;;;;;;;;;5064074;28;42982;-81
2023/04/06 00:23:00;;;;;;;;;;;;;;;;;;5064540;28;43066;-81
2023/04/06 00:25:26;;;;;;;;;;;;;;;;;;5054607;28;43196;-81
2023/04/06 00:27:52;;;;;;;;;;;;;;;;;;5055522;28;43328;-81
2023/04/06 00:30:18;;;;;;;;;;;;;;;;;;5047976;28;43198;-81
2023/04/06 00:32:44;;;;;;;;;;;;;;;;;;5056602;28;43515;-81
2023/04/06 00:35:10;;;;;;;;;;;;;;;;;;5049322;28;42940;-80
2023/04/06 00:37:36;;;;;;;;;;;;;;;;;;5044404;28;43806;-82
2023/04/06 00:40:02;;;;;;;;;;;;;;;;;;5055598;28;42767;-81
2023/04/06 00:42:28;;;;;;;;;;;;;;;;;;5044674;28;43190;-79
2023/04/06 00:44:54;;;;;;;;;;;;;;;;;;5050665;28;43064;-80
2023/04/06 00:47:20;;;;;;;;;;;;;;;;;;5055706;28;43487;-81
2023/04/06 00:49:46;;;;;;;;;;;;;;;;;;5047065;28;42838;-80
2023/04/06 00:52:12;;;;;;;;;;;;;;;;;;5059318;28;42950;-77
2023/04/06 00:54:38;;;;;;;;;;;;;;;;;;5036479;28;43058;-80
2023/04/06 00:57:04;;;;;;;;;;;;;;;;;;5054155;28;42838;-80
2023/04/06 00:59:30;;;;;;;;;;;;;;;;;;5062002;28;42856;-79
2023/04/06 01:01:56;;;;;;;;;;;;;;;;;;5046813;28;45462;-80
2023/04/06 01:04:24;;;;;;;;;;;;;;;;;;5063052;28;43600;-80
2023/04/06 01:06:50;;;;;;;;;;;;;;;;;;5034164;28;45006;-80
2023/04/06 01:09:16;;;;;;;;;;;;;;;;;;5057199;28;43048;-80
2023/04/06 01:11:42;;;;;;;;;;;;;;;;;;5043888;28;43403;-80
2023/04/06 01:14:08;;;;;;;;;;;;;;;;;;5061130;28;42967;-79
2023/04/06 01:16:34;;;;;;;;;;;;;;;;;;5051797;28;42873;-79
2023/04/06 01:19:00;;;;;;;;;;;;;;;;;;5024427;28;43294;-80
2023/04/06 01:21:26;;;;;;;;;;;;;;;;;;5025741;28;45178;-79
2023/04/06 01:23:52;;;;;;;;;;;;;;;;;;5043827;28;42878;-80
2023/04/06 01:26:18;;;;;;;;;;;;;;;;;;5055193;28;42904;-80
2023/04/06 01:28:44;;;;;;;;;;;;;;;;;;5062282;28;42868;-79
2023/04/06 01:31:10;;;;;;;;;;;;;;;;;;5033773;28;43199;-79
2023/04/06 01:33:36;;;;;;;;;;;;;;;;;;5045189;28;43012;-80
2023/04/06 01:36:02;;;;;;;;;;;;;;;;;;5048030;28;43517;-79
2023/04/06 01:38:28;;;;;;;;;;;;;;;;;;5061220;28;42983;-80
2023/04/06 01:40:54;;;;;;;;;;;;;;;;;;5051878;28;42865;-80
2023/04/06 01:43:20;;;;;;;;;;;;;;;;;;5055765;28;43031;-79
2023/04/06 01:45:46;;;;;;;;;;;;;;;;;;5044129;28;43153;-80
2023/04/06 01:48:12;;;;;;;;;;;;;;;;;;5043776;28;43003;-80
2023/04/06 01:50:37;;;;;;;;;;;;;;;;;;5062966;28;43256;-80
2023/04/06 01:53:03;;;;;;;;;;;;;;;;;;5042780;28;42864;-80
2023/04/06 01:55:29;;;;;;;;;;;;;;;;;;5046106;28;43362;-80
2023/04/06 01:57:55;;;;;;;;;;;;;;;;;;5040352;28;43116;-80
2023/04/06 02:00:22;;;;;;;;;;;;;;;;;;5047307;28;42975;-80
2023/04/06 02:02:48;;;;;;;;;;;;;;;;;;5060435;28;43154;-79
2023/04/06 02:05:14;;;;;;;;;;;;;;;;;;5059087;28;43264;-81
2023/04/06 02:07:40;;;;;;;;;;;;;;;;;;5046307;28;42882;-80
2023/04/06 02:10:06;;;;;;;;;;;;;;;;;;5028268;28;44163;-80
2023/04/06 02:12:31;;;;;;;;;;;;;;;;;;5060570;28;43011;-80
2023/04/06 02:14:57;;;;;;;;;;;;;;;;;;5058101;28;43719;-80
2023/04/06 02:17:23;;;;;;;;;;;;;;;;;;5047023;28;42901;-80
2023/04/06 02:19:49;;;;;;;;;;;;;;;;;;5059158;28;43948;-80
2023/04/06 02:22:15;;;;;;;;;;;;;;;;;;5045016;28;43095;-80
2023/04/06 02:24:41;;;;;;;;;;;;;;;;;;5059301;28;43828;-81
2023/04/06 02:27:07;;;;;;;;;;;;;;;;;;5035675;28;42867;-80
2023/04/06 02:29:33;;;;;;;;;;;;;;;;;;5065813;28;43180;-80
2023/04/06 02:31:59;;;;;;;;;;;;;;;;;;5047984;28;43190;-80
2023/04/06 02:34:25;;;;;;;;;;;;;;;;;;5064338;28;42860;-80
2023/04/06 02:36:51;;;;;;;;;;;;;;;;;;5058827;28;42911;-80
2023/04/06 02:39:17;;;;;;;;;;;;;;;;;;5045046;28;43977;-80
2023/04/06 02:41:43;;;;;;;;;;;;;;;;;;5046761;28;42955;-80
2023/04/06 02:44:09;;;;;;;;;;;;;;;;;;5046094;28;42877;-81
2023/04/06 02:46:35;;;;;;;;;;;;;;;;;;5045389;28;42987;-80
2023/04/06 02:49:01;;;;;;;;;;;;;;;;;;5059191;28;42939;-80
2023/04/06 02:51:27;;;;;;;;;;;;;;;;;;5046976;28;42978;-79
2023/04/06 02:53:53;;;;;;;;;;;;;;;;;;5044859;28;43378;-80
2023/04/06 02:56:20;;;;;;;;;;;;;;;;;;5060125;28;42963;-80
2023/04/06 02:58:46;;;;;;;;;;;;;;;;;;5046172;28;42836;-80
2023/04/06 03:01:12;;;;;;;;;;;;;;;;;;5052264;28;42823;-79
2023/04/06 03:03:38;;;;;;;;;;;;;;;;;;5051864;28;43366;-80
2023/04/06 03:06:04;;;;;;;;;;;;;;;;;;5047035;28;43106;-80
2023/04/06 03:08:30;;;;;;;;;;;;;;;;;;5051529;28;43439;-80
2023/04/06 03:10:56;;;;;;;;;;;;;;;;;;5058858;28;43018;-80
2023/04/06 03:13:22;;;;;;;;;;;;;;;;;;5046852;28;43197;-80
2023/04/06 03:15:48;;;;;;;;;;;;;;;;;;5057471;28;43180;-81
2023/04/06 03:18:13;;;;;;;;;;;;;;;;;;5044385;28;43415;-81
2023/04/06 03:20:40;;;;;;;;;;;;;;;;;;5051453;28;42757;-79
2023/04/06 03:23:06;;;;;;;;;;;;;;;;;;5045792;28;43794;-79
2023/04/06 03:25:32;;;;;;;;;;;;;;;;;;5060236;28;43135;-80
2023/04/06 03:27:58;;;;;;;;;;;;;;;;;;5065433;28;42900;-80
2023/04/06 03:30:24;;;;;;;;;;;;;;;;;;5059318;28;42936;-80
2023/04/06 03:32:50;;;;;;;;;;;;;;;;;;5058181;28;42890;-80
2023/04/06 03:35:16;;;;;;;;;;;;;;;;;;5065299;28;42950;-80
2023/04/06 03:37:42;;;;;;;;;;;;;;;;;;5051040;28;43562;-79
2023/04/06 03:40:08;;;;;;;;;;;;;;;;;;5051725;28;42906;-80
2023/04/06 03:42:34;;;;;;;;;;;;;;;;;;5051126;28;42988;-80
2023/04/06 03:45:00;;;;;;;;;;;;;;;;;;5045645;28;42866;-80
2023/04/06 03:47:25;;;;;;;;;;;;;;;;;;5045334;28;42873;-80
2023/04/06 03:49:51;;;;;;;;;;;;;;;;;;5057652;28;42921;-80
2023/04/06 03:52:17;;;;;;;;;;;;;;;;;;5055417;28;42911;-80
2023/04/06 03:54:43;;;;;;;;;;;;;;;;;;5045554;28;43134;-80
2023/04/06 03:57:09;;;;;;;;;;;;;;;;;;5045639;28;43628;-79
2023/04/06 03:59:35;;;;;;;;;;;;;;;;;;5030977;28;43016;-79
2023/04/06 04:02:01;;;;;;;;;;;;;;;;;;5058775;28;43434;-80
2023/04/06 04:04:27;;;;;;;;;;;;;;;;;;5045428;28;43127;-80
2023/04/06 04:06:53;;;;;;;;;;;;;;;;;;5044418;28;44190;-80
2023/04/06 04:09:19;;;;;;;;;;;;;;;;;;5045731;28;42960;-80
2023/04/06 04:11:45;;;;;;;;;;;;;;;;;;5043189;28;42926;-80
2023/04/06 04:14:11;;;;;;;;;;;;;;;;;;5051563;28;42975;-80
2023/04/06 04:16:36;;;;;;;;;;;;;;;;;;5038672;28;45495;-80
2023/04/06 04:19:02;;;;;;;;;;;;;;;;;;5055146;28;43292;-79
2023/04/06 04:21:28;;;;;;;;;;;;;;;;;;5046314;28;43483;-77
2023/04/06 04:23:54;;;;;;;;;;;;;;;;;;5056222;28;42953;-78
2023/04/06 04:26:20;;;;;;;;;;;;;;;;;;5050057;28;42977;-78
2023/04/06 04:28:46;;;;;;;;;;;;;;;;;;5053300;28;43298;-76
2023/04/06 04:31:12;;;;;;;;;;;;;;;;;;5045698;28;43013;-76
2023/04/06 04:33:38;;;;;;;;;;;;;;;;;;5053062;28;43090;-78
2023/04/06 04:36:04;;;;;;;;;;;;;;;;;;5051532;28;42911;-79
2023/04/06 04:38:30;;;;;;;;;;;;;;;;;;5063381;28;42979;-78
2023/04/06 04:40:56;;;;;;;;;;;;;;;;;;5045279;28;43632;-79
2023/04/06 04:43:22;;;;;;;;;;;;;;;;;;5038091;28;43179;-81
2023/04/06 04:45:48;;;;;;;;;;;;;;;;;;5044706;28;43092;-76
2023/04/06 04:48:14;;;;;;;;;;;;;;;;;;5045260;28;42947;-77
2023/04/06 04:50:40;;;;;;;;;;;;;;;;;;5051747;28;44108;-77
2023/04/06 04:53:06;;;;;;;;;;;;;;;;;;5055705;28;42956;-77
2023/04/06 04:55:32;;;;;;;;;;;;;;;;;;5044322;28;42996;-77
2023/04/06 04:57:58;;;;;;;;;;;;;;;;;;5046917;28;42960;-82
2023/04/06 05:00:24;;;;;;;;;;;;;;;;;;5047964;28;43899;-77
2023/04/06 05:02:50;;;;;;;;;;;;;;;;;;5050972;28;43251;-80
2023/04/06 05:05:15;;;;;;;;;;;;;;;;;;5053661;28;43531;-81
2023/04/06 05:07:41;;;;;;;;;;;;;;;;;;5049409;28;42916;-81
2023/04/06 05:10:07;;;;;;;;;;;;;;;;;;5061205;28;43103;-80
2023/04/06 05:12:33;;;;;;;;;;;;;;;;;;5051369;28;43028;-80
2023/04/06 05:14:59;;;;;;;;;;;;;;;;;;5041872;28;44978;-80
2023/04/06 05:17:25;;;;;;;;;;;;;;;;;;5045552;28;43156;-80
2023/04/06 05:19:51;;;;;;;;;;;;;;;;;;5029681;28;43222;-81
2023/04/06 05:22:17;;;;;;;;;;;;;;;;;;5033438;28;43103;-81
2023/04/06 05:24:43;;;;;;;;;;;;;;;;;;5024758;28;42950;-81
2023/04/06 05:27:09;;;;;;;;;;;;;;;;;;5024413;28;42961;-80
2023/04/06 05:29:35;;;;;;;;;;;;;;;;;;5015159;28;45562;-81
2023/04/06 05:32:01;;;;;;;;;;;;;;;;;;5018201;28;42962;-81
2023/04/06 05:34:27;;;;;;;;;;;;;;;;;;5036672;28;43000;-81
2023/04/06 05:36:53;;;;;;;;;;;;;;;;;;5035854;28;43053;-80
2023/04/06 05:39:19;;;;;;;;;;;;;;;;;;5036631;28;43611;-81
2023/04/06 05:41:45;;;;;;;;;;;;;;;;;;5035555;28;43055;-82
2023/04/06 05:44:11;;;;;;;;;;;;;;;;;;5025919;28;43043;-80
2023/04/06 05:46:37;;;;;;;;;;;;;;;;;;5012091;28;42919;-79
2023/04/06 05:49:03;;;;;;;;;;;;;;;;;;5040962;28;43098;-80
2023/04/06 05:51:29;;;;;;;;;;;;;;;;;;5018272;28;43075;-81
2023/04/06 05:53:55;;;;;;;;;;;;;;;;;;5025546;28;43615;-82
2023/04/06 05:56:21;;;;;;;;;;;;;;;;;;5043242;28;42971;-83
2023/04/06 05:58:46;;;;;;;;;;;;;;;;;;5031374;28;44483;-81
2023/04/06 06:01:12;;;;;;;;;;;;;;;;;;5018744;28;43047;-82
2023/04/06 06:03:38;;;;;;;;;;;;;;;;;;5035934;28;42859;-82
2023/04/06 06:06:04;;;;;;;;;;;;;;;;;;5025369;28;42906;-82
2023/04/06 06:08:30;;;;;;;;;;;;;;;;;;5032012;28;43435;-82
2023/04/06 06:10:56;;;;;;;;;;;;;;;;;;5041425;28;42937;-82
2023/04/06 06:13:22;;;;;;;;;;;;;;;;;;5030892;28;42934;-83
2023/04/06 06:15:48;;;;;;;;;;;;;;;;;;5029303;28;42873;-83
2023/04/06 06:18:14;;;;;;;;;;;;;;;;;;5050485;28;42908;-82
2023/04/06 06:20:40;;;;;;;;;;;;;;;;;;5048898;28;43134;-83
2023/04/06 06:23:06;;;;;;;;;;;;;;;;;;5032691;28;45657;-81
2023/04/06 06:25:32;;;;;;;;;;;;;;;;;;5043710;28;42967;-83
2023/04/06 06:27:57;;;;;;;;;;;;;;;;;;5043430;28;43583;-82
2023/04/06 06:30:24;;;;;;;;;;;;;;;;;;5044206;28;42958;-82
2023/04/06 06:32:49;;;;;;;;;;;;;;;;;;5055788;28;42876;-83
2023/04/06 06:35:15;;;;;;;;;;;;;;;;;;5044135;28;43047;-83
2023/04/06 06:37:41;;;;;;;;;;;;;;;;;;5026118;28;44151;-83
2023/04/06 06:40:07;;;;;;;;;;;;;;;;;;5046465;28;42912;-81
2023/04/06 06:42:33;;;;;;;;;;;;;;;;;;5025079;28;43499;-81
2023/04/06 06:44:59;;;;;;;;;;;;;;;;;;5047333;28;42926;-80
2023/04/06 06:47:26;;;;;;;;;;;;;;;;;;5046959;28;42928;-80
2023/04/06 06:49:51;;;;;;;;;;;;;;;;;;5047016;28;42948;-80
2023/04/06 06:52:17;;;;;;;;;;;;;;;;;;5047776;28;44345;-81
2023/04/06 06:54:43;;;;;;;;;;;;;;;;;;5053931;28;44184;-80
2023/04/06 06:57:09;;;;;;;;;;;;;;;;;;5052868;28;42915;-80
2023/04/06 06:59:35;;;;;;;;;;;;;;;;;;5042008;28;43015;-83
2023/04/06 07:02:01;;;;;;;;;;;;;;;;;;5046258;28;43599;-82
2023/04/06 07:04:27;;;;;;;;;;;;;;;;;;5052359;28;43043;-86
2023/04/06 07:06:53;;;;;;;;;;;;;;;;;;5053919;28;43651;-86
2023/04/06 07:09:19;;;;;;;;;;;;;;;;;;5027840;28;43040;-85
2023/04/06 07:11:45;;;;;;;;;;;;;;;;;;5027933;28;43924;-88
2023/04/06 07:14:11;;;;;;;;;;;;;;;;;;5028156;28;43127;-89
2023/04/06 07:16:37;;;;;;;;;;;;;;;;;;5027835;28;43994;-90
2023/04/06 07:19:03;;;;;;;;;;;;;;;;;;5049519;28;43077;-89
2023/04/06 07:21:39;;;;;;;;;;;;;;;;;;;;;
2023/04/06 07:24:05;;;;;;;;;;;;;;;;;;5045008;28;68950;-90
2023/04/06 07:26:31;;;;;;;;;;;;;;;;;;5046182;28;42874;-89
2023/04/06 07:28:57;;;;;;;;;;;;;;;;;;5045835;28;43711;-89
2023/04/06 07:31:23;;;;;;;;;;;;;;;;;;5040810;28;43427;-88
2023/04/06 07:33:49;;;;;;;;;;;;;;;;;;5059284;28;43039;-89
2023/04/06 07:36:15;;;;;;;;;;;;;;;;;;5058884;28;42663;-89
2023/04/06 07:38:41;;;;;;;;;;;;;;;;;;5045856;28;42869;-91
2023/04/06 07:41:07;;;;;;;;;;;;;;;;;;5045924;28;42779;-89
2023/04/06 07:43:33;;;;;;;;;;;;;;;;;;5053097;28;42984;-89
2023/04/06 07:46:00;;;;;;;;;;;;;;;;;;5051935;28;42941;-88
2023/04/06 07:48:26;;;;;;;;;;;;;;;;;;5051661;28;43020;-90
2023/04/06 07:50:52;;;;;;;;;;;;;;;;;;5063981;28;43000;-90
2023/04/06 07:53:18;;;;;;;;;;;;;;;;;;5027217;28;43018;-88
2023/04/06 07:55:43;;;;;;;;;;;;;;;;;;5058051;28;42906;-90
2023/04/06 07:58:09;;;;;;;;;;;;;;;;;;5045614;28;42929;-90
2023/04/06 08:00:35;;;;;;;;;;;;;;;;;;5044956;28;43519;-89
2023/04/06 08:03:01;;;;;;;;;;;;;;;;;;5026525;28;43058;-89
2023/04/06 08:05:27;;;;;;;;;;;;;;;;;;5045293;28;42952;-89
2023/04/06 08:07:53;;;;;;;;;;;;;;;;;;5046062;28;42925;-89
2023/04/06 08:10:42;;;;;;;;;;;;;;;;;;5041151;28;44302;-87
2023/04/06 08:13:08;;;;;;;;;;;;;;;;;;5047602;28;43119;-87
2023/04/06 08:15:46;;;;;;;;;;;;;;;;;;5027085;28;43970;-88
2023/04/06 08:18:12;;;;;;;;;;;;;;;;;;5026572;28;43092;-88
2023/04/06 08:20:38;;;;;;;;;;;;;;;;;;5052249;28;43531;-89
2023/04/06 08:23:04;;;;;;;;;;;;;;;;;;5051321;28;42980;-87
2023/04/06 08:25:30;;;;;;;;;;;;;;;;;;5026840;28;44594;-88
2023/04/06 08:27:56;;;;;;;;;;;;;;;;;;5045105;28;42972;-88
2023/04/06 08:30:22;;;;;;;;;;;;;;;;;;5045132;28;43054;-88
2023/04/06 08:32:47;;;;;;;;;;;;;;;;;;5045036;28;42833;-89
2023/04/06 08:35:13;;;;;;;;;;;;;;;;;;5051932;28;43532;-89
2023/04/06 08:37:40;;;;;;;;;;;;;;;;;;5034139;28;42924;-88
2023/04/06 08:40:06;;;;;;;;;;;;;;;;;;5058150;28;42935;-90
2023/04/06 08:42:32;;;;;;;;;;;;;;;;;;5045806;28;42958;-90
2023/04/06 08:44:58;;;;;;;;;;;;;;;;;;5026962;28;44625;-88
2023/04/06 08:47:24;;;;;;;;;;;;;;;;;;5045100;28;42993;-88
2023/04/06 08:49:50;;;;;;;;;;;;;;;;;;5044751;28;43649;-90
2023/04/06 08:52:16;;;;;;;;;;;;;;;;;;5039970;28;43053;-87
2023/04/06 08:54:42;;;;;;;;;;;;;;;;;;5045076;28;43408;-89
2023/04/06 08:57:08;;;;;;;;;;;;;;;;;;5044345;28;42901;-87
2023/04/06 08:59:34;;;;;;;;;;;;;;;;;;5064912;28;42989;-89
2023/04/06 09:02:00;;;;;;;;;;;;;;;;;;5050220;28;42885;-89
2023/04/06 09:04:26;;;;;;;;;;;;;;;;;;5044097;28;43412;-88
2023/04/06 09:06:52;;;;;;;;;;;;;;;;;;5044955;28;42950;-90
2023/04/06 09:09:18;;;;;;;;;;;;;;;;;;5064662;28;42912;-90
2023/04/06 09:11:44;;;;;;;;;;;;;;;;;;5050698;28;43029;-90
2023/04/06 09:14:09;;;;;;;;;;;;;;;;;;5050174;28;43701;-90
2023/04/06 09:16:35;;;;;;;;;;;;;;;;;;5064245;28;43008;-89
2023/04/06 09:19:01;;;;;;;;;;;;;;;;;;5038888;28;45163;-89
2023/04/06 09:21:27;;;;;;;;;;;;;;;;;;5044187;28;43043;-90
2023/04/06 09:23:53;;;;;;;;;;;;;;;;;;5064244;28;43757;-89
2023/04/06 09:26:19;;;;;;;;;;;;;;;;;;5064445;28;42825;-89
2023/04/06 09:28:45;;;;;;;;;;;;;;;;;;5045410;28;45564;-91
2023/04/06 09:31:11;;;;;;;;;;;;;;;;;;5064391;28;42991;-89
2023/04/06 09:33:37;;;;;;;;;;;;;;;;;;5044273;28;43833;-89
2023/04/06 09:36:03;;;;;;;;;;;;;;;;;;5044253;28;43006;-88
2023/04/06 09:38:29;;;;;;;;;;;;;;;;;;5056986;28;42947;-88
2023/04/06 09:40:55;;;;;;;;;;;;;;;;;;5043493;28;42963;-88
2023/04/06 09:43:21;;;;;;;;;;;;;;;;;;5044055;28;43805;-90
2023/04/06 09:45:47;;;;;;;;;;;;;;;;;;5043826;28;42949;-90
2023/04/06 09:48:13;;;;;;;;;;;;;;;;;;5025484;28;45512;-90
2023/04/06 09:50:40;;;;;;;;;;;;;;;;;;5039013;28;43024;-90
2023/04/06 09:53:05;;;;;;;;;;;;;;;;;;5032696;28;44288;-89
2023/04/06 09:55:31;;;;;;;;;;;;;;;;;;5050267;28;42778;-89
2023/04/06 09:57:57;;;;;;;;;;;;;;;;;;5026144;28;44765;-89
2023/04/06 10:00:24;;;;;;;;;;;;;;;;;;5026525;28;43087;-90
2023/04/06 10:02:50;;;;;;;;;;;;;;;;;;5026352;28;43078;-89
2023/04/06 10:05:16;;;;;;;;;;;;;;;;;;5044630;28;43000;-89
2023/04/06 10:07:42;;;;;;;;;;;;;;;;;;5025494;28;44865;-89
2023/04/06 10:10:08;;;;;;;;;;;;;;;;;;5039486;28;42911;-91
2023/04/06 10:12:34;;;;;;;;;;;;;;;;;;5044960;28;43523;-90
2023/04/06 10:15:00;;;;;;;;;;;;;;;;;;5048352;28;42957;-89
2023/04/06 10:17:25;;;;;;;;;;;;;;;;;;5053620;28;42923;-89
2023/04/06 10:19:51;;;;;;;;;;;;;;;;;;5052861;28;42968;-89
2023/04/06 10:22:17;;;;;;;;;;;;;;;;;;5047751;28;43400;-90
2023/04/06 10:24:43;;;;;;;;;;;;;;;;;;5047093;28;42887;-90
2023/04/06 10:27:10;;;;;;;;;;;;;;;;;;5047177;28;43421;-88
2023/04/06 10:29:36;;;;;;;;;;;;;;;;;;5047947;28;43089;-88
2023/04/06 10:32:02;;;;;;;;;;;;;;;;;;5048030;28;44201;-90
2023/04/06 10:34:31;;;;;;;;;;;;;;;;;;5047327;28;42895;-88
2023/04/06 10:36:57;;;;;;;;;;;;;;;;;;5029139;28;44179;-89
2023/04/06 10:39:22;;;;;;;;;;;;;;;;;;5028418;28;42952;-88
2023/04/06 10:49:36;;;;;;;;;;;;;;;;;;5239120;22;43123;-89
2023/04/06 10:52:02;;;;;;;;;;;;;;;;;;5039554;28;45183;-89
2023/04/06 10:54:28;;;;;;;;;;;;;;;;;;5048479;28;43067;-90
2023/04/06 10:56:53;;;;;;;;;;;;;;;;;;5046192;28;42922;-88
2023/04/06 10:59:20;;;;;;;;;;;;;;;;;;5046740;28;42924;-89
2023/04/06 11:01:46;;;;;;;;;;;;;;;;;;5057564;28;43000;-87
2023/04/06 11:04:13;;;;;;;;;;;;;;;;;;5053646;28;43063;-91
2023/04/06 11:06:39;;;;;;;;;;;;;;;;;;5053976;28;43453;-82
2023/04/06 11:09:05;;;;;;;;;;;;;;;;;;5028131;28;43013;-82
2023/04/06 11:11:31;;;;;;;;;;;;;;;;;;5058501;28;43276;-87
2023/04/06 11:13:57;;;;;;;;;;;;;;;;;;5043159;28;43375;-86
2023/04/06 11:16:23;;;;;;;;;;;;;;;;;;5037663;28;43500;-87
2023/04/06 11:18:49;;;;;;;;;;;;;;;;;;5042470;28;42972;-81
2023/04/06 11:21:15;;;;;;;;;;;;;;;;;;5055914;28;44606;-84
2023/04/06 11:23:41;;;;;;;;;;;;;;;;;;5027018;28;42871;-86
2023/04/06 11:26:08;;;;;;;;;;;;;;;;;;5059391;28;44091;-86
2023/04/06 11:28:33;;;;;;;;;;;;;;;;;;5028062;28;42934;-87
2023/04/06 11:30:59;;;;;;;;;;;;;;;;;;5041393;28;43129;-83
2023/04/06 11:33:25;;;;;;;;;;;;;;;;;;5049974;28;42980;-83
2023/04/06 11:35:51;;;;;;;;;;;;;;;;;;5049888;28;43261;-86
2023/04/06 11:38:17;;;;;;;;;;;;;;;;;;5047031;28;42850;-83
2023/04/06 11:40:43;;;;;;;;;;;;;;;;;;5047159;28;43488;-86
2023/04/06 11:43:09;;;;;;;;;;;;;;;;;;5043010;28;42880;-82
2023/04/06 11:45:35;;;;;;;;;;;;;;;;;;5059163;28;43117;-82
2023/04/06 11:48:01;;;;;;;;;;;;;;;;;;5045168;28;42977;-86
2023/04/06 11:50:27;;;;;;;;;;;;;;;;;;5049379;28;43011;-85
2023/04/06 11:52:53;;;;;;;;;;;;;;;;;;5058068;28;42992;-85
2023/04/06 11:55:18;;;;;;;;;;;;;;;;;;5056713;28;43463;-85
2023/04/06 11:57:49;;;;;;;;;;;;;;;;;;5059510;28;43230;-84
2023/04/06 12:00:14;;;;;;;;;;;;;;;;;;5026557;28;42999;-85
2023/04/06 12:02:40;;;;;;;;;;;;;;;;;;5046267;28;43130;-85
2023/04/06 12:05:08;;;;;;;;;;;;;;;;;;5058993;28;42974;-86
2023/04/06 12:07:34;;;;;;;;;;;;;;;;;;5046763;28;43000;-86
2023/04/06 12:10:00;;;;;;;;;;;;;;;;;;5048189;28;44449;-85
2023/04/06 12:12:26;;;;;;;;;;;;;;;;;;5059276;28;43047;-86
2023/04/06 12:14:52;;;;;;;;;;;;;;;;;;5061319;28;42975;-86
2023/04/06 12:17:18;;;;;;;;;;;;;;;;;;5052110;28;42960;-85
2023/04/06 12:19:44;;;;;;;;;;;;;;;;;;5052600;28;42987;-84
2023/04/06 12:22:10;;;;;;;;;;;;;;;;;;5059723;28;42948;-86
2023/04/06 12:24:36;;;;;;;;;;;;;;;;;;5029003;28;44286;-85
2023/04/06 12:27:02;;;;;;;;;;;;;;;;;;5050171;28;43329;-85
2023/04/06 12:29:28;;;;;;;;;;;;;;;;;;5052417;28;42960;-86
2023/04/06 12:31:54;;;;;;;;;;;;;;;;;;5054714;28;42963;-84
2023/04/06 12:34:21;;;;;;;;;;;;;;;;;;5053336;28;63622;-85
2023/04/06 12:36:47;;;;;;;;;;;;;;;;;;5055921;28;42809;-84
2023/04/06 12:39:13;;;;;;;;;;;;;;;;;;5051061;28;43847;-84
2023/04/06 12:41:41;;;;;;;;;;;;;;;;;;5058393;28;42902;-84
2023/04/06 12:44:06;;;;;;;;;;;;;;;;;;5050118;28;43768;-83
2023/04/06 12:46:32;;;;;;;;;;;;;;;;;;5051526;28;42908;-82
2023/04/06 12:48:59;;;;;;;;;;;;;;;;;;5052617;28;43909;-84
2023/04/06 12:51:25;;;;;;;;;;;;;;;;;;5056114;28;42961;-85
2023/04/06 12:53:51;;;;;;;;;;;;;;;;;;5043871;28;43521;-83
2023/04/06 12:56:17;;;;;;;;;;;;;;;;;;5044006;28;42957;-83
2023/04/06 12:58:43;;;;;;;;;;;;;;;;;;5043989;28;43475;-85
2023/04/06 13:01:09;;;;;;;;;;;;;;;;;;5045839;28;42993;-85
2023/04/06 13:03:35;;;;;;;;;;;;;;;;;;5058323;28;42903;-84
2023/04/06 13:06:01;;;;;;;;;;;;;;;;;;5043789;28;42893;-85
2023/04/06 13:08:27;;;;;;;;;;;;;;;;;;5057539;28;43704;-86
2023/04/06 13:10:53;;;;;;;;;;;;;;;;;;5043385;28;42913;-83
2023/04/06 13:13:19;;;;;;;;;;;;;;;;;;5056838;28;43634;-83
2023/04/06 13:15:45;;;;;;;;;;;;;;;;;;5056755;28;43023;-85
2023/04/06 13:18:14;;;;;;;;;;;;;;;;;;5032265;28;43019;-85
2023/04/06 13:20:40;;;;;;;;;;;;;;;;;;5028566;28;42940;-81
2023/04/06 13:23:06;;;;;;;;;;;;;;;;;;5049259;28;42927;-84
2023/04/06 13:25:32;;;;;;;;;;;;;;;;;;5050783;28;42998;-85
2023/04/06 13:27:58;;;;;;;;;;;;;;;;;;5053951;28;42864;-83
2023/04/06 13:30:24;;;;;;;;;;;;;;;;;;5063930;28;43297;-83
2023/04/06 13:32:50;;;;;;;;;;;;;;;;;;5031362;28;45005;-85
2023/04/06 13:35:16;;;;;;;;;;;;;;;;;;5056661;28;42977;-84
2023/04/06 13:37:42;;;;;;;;;;;;;;;;;;5054604;28;42918;-84
2023/04/06 13:40:08;;;;;;;;;;;;;;;;;;5031796;28;43116;-83
2023/04/06 13:42:39;;;;;;;;;;;;;;;;;;5045665;28;43277;-83
2023/04/06 13:45:05;;;;;;;;;;;;;;;;;;5049672;28;42990;-85
2023/04/06 13:47:31;;;;;;;;;;;;;;;;;;5058648;28;43030;-83
2023/04/06 13:49:57;;;;;;;;;;;;;;;;;;5049627;28;42940;-84
2023/04/06 13:52:23;;;;;;;;;;;;;;;;;;5052106;28;43572;-81
2023/04/06 13:54:49;;;;;;;;;;;;;;;;;;5046998;28;42987;-82
2023/04/06 13:57:15;;;;;;;;;;;;;;;;;;5059486;28;42953;-78
2023/04/06 13:59:41;;;;;;;;;;;;;;;;;;5054653;28;42994;-86
2023/04/06 14:02:07;;;;;;;;;;;;;;;;;;5053067;28;43044;-83
2023/04/06 14:04:33;;;;;;;;;;;;;;;;;;5045828;28;42930;-81
2023/04/06 14:06:59;;;;;;;;;;;;;;;;;;5049154;28;42957;-88
2023/04/06 14:09:25;;;;;;;;;;;;;;;;;;5047476;28;42977;-83
2023/04/06 14:11:51;;;;;;;;;;;;;;;;;;5056904;28;43601;-81
2023/04/06 14:14:17;;;;;;;;;;;;;;;;;;5059838;28;42929;-83
2023/04/06 14:16:43;;;;;;;;;;;;;;;;;;5049700;28;42949;-81
2023/04/06 14:19:09;;;;;;;;;;;;;;;;;;5050018;28;42980;-84
2023/04/06 14:21:36;;;;;;;;;;;;;;;;;;5041889;28;43851;-84
2023/04/06 14:24:02;;;;;;;;;;;;;;;;;;5057390;28;43035;-85
2023/04/06 14:26:28;;;;;;;;;;;;;;;;;;5059387;28;42941;-84
2023/04/06 14:28:57;;;;;;;;;;;;;;;;;;5061967;28;43555;-86
2023/04/06 14:31:23;;;;;;;;;;;;;;;;;;5055747;28;44243;-86
2023/04/06 14:33:50;;;;;;;;;;;;;;;;;;5050031;28;43055;-82
2023/04/06 14:36:15;;;;;;;;;;;;;;;;;;5046135;28;42992;-81
2023/04/06 14:38:43;;;;;;;;;;;;;;;;;;5051528;28;42979;-83
2023/04/06 14:41:10;;;;;;;;;;;;;;;;;;5060625;28;43587;-86
2023/04/06 14:43:36;;;;;;;;;;;;;;;;;;5064709;28;42988;-82
2023/04/06 14:46:02;;;;;;;;;;;;;;;;;;5054855;28;42924;-83
2023/04/06 14:48:28;;;;;;;;;;;;;;;;;;5051375;28;43076;-83
2023/04/06 14:50:54;;;;;;;;;;;;;;;;;;5047614;28;44042;-83
2023/04/06 14:53:20;;;;;;;;;;;;;;;;;;5045804;28;42943;-83
2023/04/06 14:55:46;;;;;;;;;;;;;;;;;;5046275;28;42971;-84
2023/04/06 14:58:12;;;;;;;;;;;;;;;;;;5045706;28;42946;-86
2023/04/06 15:00:38;;;;;;;;;;;;;;;;;;5048454;28;43517;-84
2023/04/06 15:03:04;;;;;;;;;;;;;;;;;;5055529;28;43125;-83
2023/04/06 15:05:31;;;;;;;;;;;;;;;;;;5048160;28;43550;-84
2023/04/06 15:07:57;;;;;;;;;;;;;;;;;;5056771;28;42985;-81
2023/04/06 15:10:23;;;;;;;;;;;;;;;;;;5047564;28;43027;-84
2023/04/06 15:12:49;;;;;;;;;;;;;;;;;;5048315;28;43040;-84
2023/04/06 15:15:15;;;;;;;;;;;;;;;;;;5053281;28;43035;-84
2023/04/06 15:17:40;;;;;;;;;;;;;;;;;;5056622;28;43224;-81
2023/04/06 15:20:06;;;;;;;;;;;;;;;;;;5052254;28;43555;-85
2023/04/06 15:22:32;;;;;;;;;;;;;;;;;;5057352;28;42888;-84
2023/04/06 15:24:58;;;;;;;;;;;;;;;;;;5049564;28;43775;-84
2023/04/06 15:27:24;;;;;;;;;;;;;;;;;;5057476;28;43021;-83
2023/04/06 15:29:50;;;;;;;;;;;;;;;;;;5054156;28;42967;-83
2023/04/06 15:32:16;;;;;;;;;;;;;;;;;;5050758;28;43126;-83
2023/04/06 15:34:42;;;;;;;;;;;;;;;;;;5049727;28;43447;-86
2023/04/06 15:37:08;;;;;;;;;;;;;;;;;;5054927;28;42834;-87
2023/04/06 15:39:35;;;;;;;;;;;;;;;;;;5045726;28;42805;-80
2023/04/06 15:42:01;;;;;;;;;;;;;;;;;;5050867;28;43214;-86
2023/04/06 15:44:27;;;;;;;;;;;;;;;;;;5048949;28;43017;-87
2023/04/06 15:46:53;;;;;;;;;;;;;;;;;;5039454;28;43058;-84
2023/04/06 15:49:19;;;;;;;;;;;;;;;;;;5061044;28;43747;-86
2023/04/06 15:51:45;;;;;;;;;;;;;;;;;;5057202;28;43339;-87
2023/04/06 15:54:11;;;;;;;;;;;;;;;;;;5058785;28;42969;-82
2023/04/06 15:56:37;;;;;;;;;;;;;;;;;;5037297;28;42819;-87
2023/04/06 15:59:03;;;;;;;;;;;;;;;;;;5049365;28;42927;-87
2023/04/06 16:01:30;;;;;;;;;;;;;;;;;;5054485;28;42989;-83
2023/04/06 16:03:56;;;;;;;;;;;;;;;;;;5049438;28;43560;-80
2023/04/06 16:06:22;;;;;;;;;;;;;;;;;;5065984;28;42984;-87
2023/04/06 16:08:47;;;;;;;;;;;;;;;;;;5052218;28;43641;-85
2023/04/06 16:11:13;;;;;;;;;;;;;;;;;;5054250;28;42967;-86
2023/04/06 16:13:39;;;;;;;;;;;;;;;;;;5043170;28;43382;-86
2023/04/06 16:16:05;;;;;;;;;;;;;;;;;;5045318;28;43105;-87
2023/04/06 16:18:31;;;;;;;;;;;;;;;;;;5048914;28;43224;-88
2023/04/06 16:20:57;;;;;;;;;;;;;;;;;;5027632;28;43975;-87
2023/04/06 16:23:23;;;;;;;;;;;;;;;;;;5047812;28;43368;-89
2023/04/06 16:25:49;;;;;;;;;;;;;;;;;;5064235;28;42913;-87
2023/04/06 16:28:15;;;;;;;;;;;;;;;;;;5048740;28;43042;-86
2023/04/06 16:30:41;;;;;;;;;;;;;;;;;;5057837;28;43077;-88
2023/04/06 16:33:07;;;;;;;;;;;;;;;;;;5051551;28;43415;-85
2023/04/06 16:35:33;;;;;;;;;;;;;;;;;;5059590;28;44220;-84
2023/04/06 16:38:02;;;;;;;;;;;;;;;;;;5050861;28;43028;-81
2023/04/06 16:40:28;;;;;;;;;;;;;;;;;;5055453;28;43588;-82
2023/04/06 16:42:54;;;;;;;;;;;;;;;;;;5060931;28;43073;-81
2023/04/06 16:45:20;;;;;;;;;;;;;;;;;;5048813;28;43064;-87